Time;durP1;ratioP1;P1;durP2;ratioP2;P2;SDS_P1;SDS_P2;PMS_P1;PMS_P2;Temp;Humidity;BMP_temperature;BMP_pressure;BME280_temperature;BME280_humidity;BME280_pressure;Samples;Min_cycle;Max_cycle;Signal;HPM_P1;HPM_P2
2022/03/15 00:00:27;;;;;;;17.03;15.23;;;;;22.00;101705.00;;;;2078234;28;20275;-49
2022/03/15 00:01:27;;;;;;;16.10;14.45;;;;;22.00;101707.00;;;;2076190;28;20713;-48
2022/03/15 00:02:28;;;;;;;17.23;15.40;;;;;22.00;101708.00;;;;2062947;28;20210;-48
2022/03/15 00:03:29;;;;;;;16.75;15.02;;;;;22.00;101709.00;;;;2065805;28;20595;-49
2022/03/15 00:04:29;;;;;;;17.67;14.03;;;;;22.00;101704.00;;;;2074616;28;20228;-49
2022/03/15 00:05:29;;;;;;;15.80;14.10;;;;;22.00;101706.00;;;;2072204;28;20222;-48
2022/03/15 00:06:34;;;;;;;16.03;14.33;;;;;22.00;101703.00;;;;2078982;28;20217;-48
2022/03/15 00:07:35;;;;;;;15.05;13.52;;;;;22.00;101702.00;;;;2071608;28;20309;-48
2022/03/15 00:08:36;;;;;;;15.80;13.93;;;;;22.00;101704.00;;;;2075567;28;20225;-49
2022/03/15 00:09:36;;;;;;;15.17;13.37;;;;;22.00;101705.00;;;;2073594;28;20548;-48
2022/03/15 00:10:37;;;;;;;15.13;13.53;;;;;22.00;101706.00;;;;2075027;28;20449;-48
2022/03/15 00:11:38;;;;;;;14.20;12.73;;;;;22.00;101707.00;;;;2078537;28;20213;-48
2022/03/15 00:12:39;;;;;;;14.10;12.43;;;;;22.00;101710.00;;;;2073421;28;20214;-49
2022/03/15 00:13:39;;;;;;;15.57;13.90;;;;;21.90;101703.00;;;;2072981;28;20221;-49
2022/03/15 00:14:40;;;;;;;13.60;12.20;;;;;21.90;101701.00;;;;2072255;28;20686;-48
2022/03/15 00:15:42;;;;;;;12.70;11.40;;;;;21.90;101708.00;;;;2078526;28;20753;-48
2022/03/15 00:16:42;;;;;;;14.30;12.88;;;;;21.70;101701.00;;;;2076155;28;20507;-48
2022/03/15 00:17:44;;;;;;;13.13;11.40;;;;;21.90;101705.00;;;;2077218;28;20213;-48
2022/03/15 00:18:45;;;;;;;12.00;10.80;;;;;21.90;101705.00;;;;2069469;28;20305;-48
2022/03/15 00:19:46;;;;;;;12.55;11.13;;;;;21.90;101707.00;;;;2072070;28;20218;-48
2022/03/15 00:20:47;;;;;;;12.20;10.90;;;;;21.90;101706.00;;;;2077167;28;20210;-48
2022/03/15 00:21:47;;;;;;;11.40;10.03;;;;;21.90;101716.00;;;;2076605;28;20267;-48
2022/03/15 00:22:48;;;;;;;12.43;11.23;;;;;21.90;101649.00;;;;2075639;28;20240;-50
2022/03/15 00:23:48;;;;;;;12.17;10.97;;;;;21.90;101699.00;;;;2071045;28;21384;-49
2022/03/15 00:24:49;;;;;;;12.43;10.93;;;;;21.90;101705.00;;;;2076366;28;20266;-49
2022/03/15 00:25:50;;;;;;;12.27;11.07;;;;;21.90;101703.00;;;;2078947;28;20209;-49
2022/03/15 00:26:51;;;;;;;12.10;10.77;;;;;21.90;101703.00;;;;2071601;28;20305;-49
2022/03/15 00:27:51;;;;;;;11.20;10.00;;;;;21.90;101711.00;;;;2076443;28;20311;-49
2022/03/15 00:28:52;;;;;;;11.90;10.50;;;;;21.90;101710.00;;;;2075467;28;20468;-49
2022/03/15 00:29:52;;;;;;;12.60;9.87;;;;;21.90;101709.00;;;;2072601;28;20206;-49
2022/03/15 00:30:53;;;;;;;11.20;9.60;;;;;21.90;101708.00;;;;2070325;28;20306;-48
2022/03/15 00:31:53;;;;;;;11.50;9.40;;;;;21.90;101699.00;;;;2074697;28;20241;-49
2022/03/15 00:32:54;;;;;;;11.17;9.77;;;;;21.90;101705.00;;;;2072522;28;20293;-49
2022/03/15 00:33:54;;;;;;;9.20;8.27;;;;;21.90;101710.00;;;;2079238;28;20209;-48
2022/03/15 00:34:54;;;;;;;12.10;9.77;;;;;21.90;101701.00;;;;2075953;28;20621;-49
2022/03/15 00:35:55;;;;;;;9.93;8.80;;;;;21.90;101714.00;;;;2077504;28;20741;-48
2022/03/15 00:36:55;;;;;;;10.93;9.93;;;;;21.80;101709.00;;;;2078045;28;20243;-48
2022/03/15 00:37:55;;;;;;;11.40;9.10;;;;;21.80;101704.00;;;;2071009;28;20228;-48
2022/03/15 00:38:56;;;;;;;9.80;8.90;;;;;21.80;101695.00;;;;2074374;28;20206;-49
2022/03/15 00:39:56;;;;;;;11.50;9.97;;;;;21.80;101699.00;;;;2070373;28;20596;-49
2022/03/15 00:40:56;;;;;;;10.10;8.80;;;;;21.80;101705.00;;;;2078607;28;20653;-48
2022/03/15 00:41:57;;;;;;;10.77;9.03;;;;;21.80;101702.00;;;;2077025;28;21085;-48
2022/03/15 00:42:58;;;;;;;9.03;8.03;;;;;21.80;101699.00;;;;2074491;28;20697;-48
2022/03/15 00:43:58;;;;;;;9.35;8.25;;;;;21.80;101692.00;;;;2070447;28;20546;-48
2022/03/15 00:45:01;;;;;;;8.57;7.77;;;;;21.80;101700.00;;;;2069822;28;20313;-48
2022/03/15 00:46:02;;;;;;;8.65;7.85;;;;;21.80;101712.00;;;;2064143;28;20214;-48
2022/03/15 00:47:03;;;;;;;9.53;8.53;;;;;21.80;101698.00;;;;2075664;28;20210;-48
2022/03/15 00:48:03;;;;;;;8.40;7.60;;;;;21.80;101692.00;;;;2073593;28;20749;-48
2022/03/15 00:49:03;;;;;;;9.33;8.37;;;;;21.80;101700.00;;;;2074543;28;20452;-48
2022/03/15 00:50:04;;;;;;;7.87;7.13;;;;;21.80;101692.00;;;;2075318;28;20548;-48
2022/03/15 00:51:04;;;;;;;8.70;7.50;;;;;21.80;101701.00;;;;2072676;28;20202;-48
2022/03/15 00:52:05;;;;;;;9.30;8.30;;;;;21.80;101698.00;;;;2074767;28;20762;-48
2022/03/15 00:53:05;;;;;;;8.80;7.80;;;;;21.80;101692.00;;;;2070976;28;20214;-49
2022/03/15 00:54:06;;;;;;;9.13;8.23;;;;;21.80;101637.00;;;;2074601;28;20274;-48
2022/03/15 00:55:06;;;;;;;8.70;7.90;;;;;21.70;101703.00;;;;2073477;28;20555;-48
2022/03/15 00:56:07;;;;;;;8.00;6.70;;;;;21.80;101700.00;;;;2071682;28;20701;-48
2022/03/15 00:57:08;;;;;;;8.50;7.60;;;;;21.80;101693.00;;;;2078372;28;20210;-48
2022/03/15 00:58:10;;;;;;;7.97;7.18;;;;;21.80;101695.00;;;;2070126;28;20218;-48
2022/03/15 00:59:11;;;;;;;8.82;7.93;;;;;21.80;101688.00;;;;2070265;28;20226;-48
2022/03/15 01:00:12;;;;;;;8.00;7.30;;;;;21.70;101686.00;;;;2075122;28;20206;-48
2022/03/15 01:01:13;;;;;;;8.98;7.75;;;;;21.80;101690.00;;;;2071127;28;20206;-48
2022/03/15 01:02:13;;;;;;;8.10;7.07;;;;;21.70;101691.00;;;;2076258;28;20670;-48
2022/03/15 01:03:14;;;;;;;9.57;8.00;;;;;21.70;101688.00;;;;2075613;28;21333;-48
2022/03/15 01:04:15;;;;;;;7.47;6.77;;;;;21.70;101687.00;;;;2075338;28;20264;-48
2022/03/15 01:05:16;;;;;;;10.03;7.60;;;;;21.70;101685.00;;;;2074390;28;20516;-48
2022/03/15 01:06:16;;;;;;;8.38;7.57;;;;;21.70;101685.00;;;;2072458;28;20588;-48
2022/03/15 01:07:17;;;;;;;7.13;6.40;;;;;21.70;101692.00;;;;2072834;28;20221;-49
2022/03/15 01:08:17;;;;;;;8.97;6.40;;;;;21.70;101700.00;;;;2072268;28;20238;-49
2022/03/15 01:09:17;;;;;;;9.50;7.73;;;;;21.70;101693.00;;;;2070793;28;20216;-49
2022/03/15 01:10:18;;;;;;;7.90;7.10;;;;;21.70;101688.00;;;;2070767;28;20214;-47
2022/03/15 01:11:18;;;;;;;7.87;7.00;;;;;21.70;101691.00;;;;2070660;28;20563;-48
2022/03/15 01:12:18;;;;;;;7.73;6.93;;;;;21.70;101696.00;;;;2072545;28;20327;-48
2022/03/15 01:13:19;;;;;;;7.53;6.73;;;;;21.70;101686.00;;;;2070271;28;20959;-48
2022/03/15 01:14:20;;;;;;;8.33;7.10;;;;;21.70;101688.00;;;;2071694;28;20226;-48
2022/03/15 01:15:24;;;;;;;8.38;7.22;;;;;21.70;101690.00;;;;2078506;28;20763;-48
2022/03/15 01:16:25;;;;;;;6.97;6.28;;;;;21.70;101683.00;;;;2079059;28;20209;-48
2022/03/15 01:17:25;;;;;;;7.53;6.40;;;;;21.70;101686.00;;;;2078184;28;20736;-48
2022/03/15 01:18:25;;;;;;;7.33;6.57;;;;;21.70;101681.00;;;;2076873;28;20223;-49
2022/03/15 01:19:26;;;;;;;6.93;6.33;;;;;21.60;101680.00;;;;2078791;28;20218;-48
2022/03/15 01:20:26;;;;;;;6.83;5.83;;;;;21.70;101682.00;;;;2078820;28;20259;-48
2022/03/15 01:21:27;;;;;;;6.53;5.80;;;;;21.70;101682.00;;;;2078622;28;20235;-48
2022/03/15 01:22:28;;;;;;;7.30;6.60;;;;;21.70;101677.00;;;;2078247;28;20236;-49
2022/03/15 01:23:28;;;;;;;8.30;6.50;;;;;21.70;101682.00;;;;2078724;28;20267;-49
2022/03/15 01:24:28;;;;;;;8.43;5.90;;;;;21.70;101676.00;;;;2078646;28;20221;-49
2022/03/15 01:25:30;;;;;;;7.23;6.30;;;;;21.60;101677.00;;;;2078263;28;20210;-49
2022/03/15 01:26:30;;;;;;;6.60;5.90;;;;;21.60;101675.00;;;;2078584;28;20760;-49
2022/03/15 01:27:31;;;;;;;7.10;6.30;;;;;21.60;101679.00;;;;2077996;28;20221;-49
2022/03/15 01:28:31;;;;;;;6.10;5.50;;;;;21.60;101674.00;;;;2078258;28;20228;-49
2022/03/15 01:29:31;;;;;;;6.47;5.83;;;;;21.60;101667.00;;;;2078702;28;20221;-48
2022/03/15 01:30:32;;;;;;;8.23;6.37;;;;;21.60;101681.00;;;;2078608;28;20213;-49
2022/03/15 01:31:32;;;;;;;6.43;5.77;;;;;21.60;101671.00;;;;2079004;28;20234;-49
2022/03/15 01:32:32;;;;;;;6.43;5.83;;;;;21.60;101677.00;;;;2077242;28;20217;-49
2022/03/15 01:33:33;;;;;;;6.50;5.50;;;;;21.60;101676.00;;;;2078329;28;20243;-49
2022/03/15 01:34:33;;;;;;;7.50;6.13;;;;;21.60;101682.00;;;;2077166;28;20316;-49
2022/03/15 01:35:34;;;;;;;6.60;6.00;;;;;21.60;101677.00;;;;2069838;28;20206;-49
2022/03/15 01:36:34;;;;;;;7.23;5.87;;;;;21.60;101679.00;;;;2070897;28;20308;-48
2022/03/15 01:37:35;;;;;;;6.33;5.20;;;;;21.60;101682.00;;;;2069093;28;20752;-48
2022/03/15 01:38:35;;;;;;;6.47;5.60;;;;;21.60;101669.00;;;;2069299;28;20253;-49
2022/03/15 01:39:37;;;;;;;6.53;5.30;;;;;21.60;101668.00;;;;2069738;28;20212;-48
2022/03/15 01:40:37;;;;;;;5.80;5.20;;;;;21.60;101674.00;;;;2069640;28;20276;-48
2022/03/15 01:41:39;;;;;;;7.30;5.87;;;;;21.60;101680.00;;;;2070395;28;20736;-48
2022/03/15 01:42:40;;;;;;;6.50;5.85;;;;;21.60;101679.00;;;;2074804;28;20218;-48
2022/03/15 01:43:41;;;;;;;5.90;5.30;;;;;21.60;101675.00;;;;2077629;28;20311;-49
2022/03/15 01:44:45;;;;;;;7.13;5.70;;;;;21.60;101668.00;;;;2077706;28;20221;-48
2022/03/15 01:45:46;;;;;;;6.40;5.70;;;;;21.60;101663.00;;;;2077452;28;20210;-48
2022/03/15 01:46:46;;;;;;;6.27;5.67;;;;;21.60;101669.00;;;;2077216;28;20263;-48
2022/03/15 01:47:47;;;;;;;5.37;4.87;;;;;21.50;101664.00;;;;2071108;28;20613;-48
2022/03/15 01:48:47;;;;;;;6.17;5.57;;;;;21.50;101661.00;;;;2074503;28;20281;-48
2022/03/15 01:49:47;;;;;;;7.53;5.37;;;;;21.60;101603.00;;;;2074503;28;20218;-48
2022/03/15 01:50:48;;;;;;;6.70;5.17;;;;;21.60;101664.00;;;;2070827;28;20646;-48
2022/03/15 01:51:48;;;;;;;7.07;5.90;;;;;21.50;101670.00;;;;2074341;28;20303;-48
2022/03/15 01:52:48;;;;;;;9.13;5.10;;;;;21.50;101659.00;;;;2070103;28;20230;-48
2022/03/15 01:53:49;;;;;;;6.30;4.77;;;;;21.50;101670.00;;;;2062188;28;20661;-48
2022/03/15 01:54:49;;;;;;;5.20;4.70;;;;;21.50;101665.00;;;;2073304;28;20214;-48
2022/03/15 01:55:50;;;;;;;5.53;4.50;;;;;21.50;101664.00;;;;2075250;28;20247;-48
2022/03/15 01:56:50;;;;;;;5.70;5.07;;;;;21.50;101662.00;;;;2072010;28;20308;-48
2022/03/15 01:57:50;;;;;;;5.20;4.70;;;;;21.50;101665.00;;;;2074000;28;20249;-48
2022/03/15 01:58:51;;;;;;;5.80;5.30;;;;;21.50;101662.00;;;;2074773;28;20225;-48
2022/03/15 01:59:51;;;;;;;5.13;4.70;;;;;21.50;101667.00;;;;2077101;28;20217;-48
2022/03/15 02:00:52;;;;;;;5.60;4.60;;;;;21.50;101655.00;;;;2070934;28;20214;-48
2022/03/15 02:01:52;;;;;;;6.00;4.60;;;;;21.50;101651.00;;;;2077858;28;20247;-48
2022/03/15 02:02:53;;;;;;;4.90;4.50;;;;;21.50;101661.00;;;;2074965;28;20229;-48
2022/03/15 02:03:53;;;;;;;5.07;4.57;;;;;21.50;101648.00;;;;2077040;28;20218;-48
2022/03/15 02:04:54;;;;;;;5.40;5.00;;;;;21.50;101648.00;;;;2073334;28;20220;-49
2022/03/15 02:05:54;;;;;;;5.57;5.07;;;;;21.50;101650.00;;;;2074993;28;20218;-48
2022/03/15 02:07:21;;;;;;;5.60;5.10;;;;;21.50;101651.00;;;;2074216;28;20242;-48
2022/03/15 02:08:21;;;;;;;5.00;4.60;;;;;21.50;101657.00;;;;2072923;28;20213;-48
2022/03/15 02:09:21;;;;;;;5.20;4.67;;;;;21.50;101655.00;;;;2075138;28;20237;-48
2022/03/15 02:10:22;;;;;;;5.10;4.60;;;;;21.50;101656.00;;;;2078483;28;20244;-48
2022/03/15 02:11:22;;;;;;;6.00;4.50;;;;;21.50;101650.00;;;;2071628;28;20209;-48
2022/03/15 02:12:22;;;;;;;4.83;4.33;;;;;21.50;101651.00;;;;2073622;28;20206;-48
2022/03/15 02:13:23;;;;;;;5.60;4.80;;;;;21.40;101649.00;;;;2074315;28;20202;-48
2022/03/15 02:14:25;;;;;;;5.80;5.20;;;;;21.50;101651.00;;;;2070577;28;20210;-48
2022/03/15 02:15:25;;;;;;;4.93;4.53;;;;;21.50;101651.00;;;;2070632;28;20211;-48
2022/03/15 02:16:25;;;;;;;5.23;4.67;;;;;21.40;101654.00;;;;2074175;28;20751;-48
2022/03/15 02:17:26;;;;;;;4.93;4.50;;;;;21.40;101659.00;;;;2074265;28;20212;-48
2022/03/15 02:18:27;;;;;;;4.93;4.43;;;;;21.40;101652.00;;;;2074313;28;20709;-48
2022/03/15 02:19:27;;;;;;;4.88;4.38;;;;;21.40;101651.00;;;;2073993;28;20249;-48
2022/03/15 02:20:28;;;;;;;5.57;5.00;;;;;21.40;101647.00;;;;2074357;28;20295;-48
2022/03/15 02:21:28;;;;;;;5.10;4.47;;;;;21.40;101655.00;;;;2071839;28;20213;-48
2022/03/15 02:22:28;;;;;;;5.30;4.80;;;;;21.40;101647.00;;;;2074289;28;20216;-48
2022/03/15 02:23:29;;;;;;;4.77;4.37;;;;;21.40;101655.00;;;;2075534;28;20245;-48
2022/03/15 02:24:29;;;;;;;4.93;4.50;;;;;21.40;101654.00;;;;2074793;28;20288;-48
2022/03/15 02:25:29;;;;;;;4.60;4.20;;;;;21.40;101650.00;;;;2078411;28;20221;-48
2022/03/15 02:26:30;;;;;;;5.23;4.50;;;;;21.40;101643.00;;;;2080043;28;20564;-48
2022/03/15 02:27:30;;;;;;;5.10;4.60;;;;;21.40;101644.00;;;;2072839;28;20568;-48
2022/03/15 02:28:30;;;;;;;6.30;4.53;;;;;21.40;101641.00;;;;2076630;28;20230;-48
2022/03/15 02:29:33;;;;;;;5.00;4.50;;;;;21.40;101642.00;;;;2075099;28;20209;-48
2022/03/15 02:30:34;;;;;;;4.88;4.25;;;;;21.40;101644.00;;;;2074472;28;20218;-48
2022/03/15 02:31:34;;;;;;;4.53;4.13;;;;;21.40;101637.00;;;;2080241;28;20213;-48
2022/03/15 02:32:35;;;;;;;4.30;3.90;;;;;21.40;101640.00;;;;2079767;28;20451;-48
2022/03/15 02:33:35;;;;;;;5.10;4.57;;;;;21.40;101639.00;;;;2080319;28;20213;-49
2022/03/15 02:34:35;;;;;;;6.00;4.73;;;;;21.40;101637.00;;;;2077468;28;20692;-48
2022/03/15 02:35:36;;;;;;;4.80;4.23;;;;;21.40;101629.00;;;;2070950;28;20256;-48
2022/03/15 02:36:36;;;;;;;4.73;4.33;;;;;21.40;101632.00;;;;2068258;28;20252;-48
2022/03/15 02:37:37;;;;;;;4.93;4.53;;;;;21.40;101629.00;;;;2071798;28;20318;-48
2022/03/15 02:38:37;;;;;;;5.03;4.33;;;;;21.40;101624.00;;;;2071574;28;20253;-48
2022/03/15 02:39:37;;;;;;;4.90;4.47;;;;;21.40;101618.00;;;;2071399;28;20222;-48
2022/03/15 02:40:38;;;;;;;4.70;4.30;;;;;21.40;101621.00;;;;2071576;28;20229;-48
2022/03/15 02:41:38;;;;;;;5.67;5.13;;;;;21.40;101616.00;;;;2071256;28;20214;-48
2022/03/15 02:42:38;;;;;;;5.57;4.57;;;;;21.40;101618.00;;;;2071910;28;20226;-48
2022/03/15 02:43:39;;;;;;;5.43;4.43;;;;;21.30;101624.00;;;;2071793;28;20295;-48
2022/03/15 02:44:40;;;;;;;4.70;4.30;;;;;21.40;101622.00;;;;2071862;28;20232;-48
2022/03/15 02:45:40;;;;;;;7.97;4.70;;;;;21.40;101568.00;;;;2071152;28;20214;-48
2022/03/15 02:46:40;;;;;;;5.23;4.73;;;;;21.40;101623.00;;;;2059458;28;20237;-48
2022/03/15 02:47:43;;;;;;;4.53;4.13;;;;;21.40;101615.00;;;;2070611;28;21153;-48
2022/03/15 02:48:44;;;;;;;5.10;4.70;;;;;21.40;101626.00;;;;2070881;28;20222;-48
2022/03/15 02:49:44;;;;;;;4.87;4.47;;;;;21.40;101613.00;;;;2070505;28;20552;-48
2022/03/15 02:50:45;;;;;;;4.70;4.20;;;;;21.40;101617.00;;;;2071391;28;20233;-49
2022/03/15 02:51:45;;;;;;;5.57;4.43;;;;;21.30;101606.00;;;;2063656;28;20792;-49
2022/03/15 02:52:45;;;;;;;5.00;4.50;;;;;21.40;101613.00;;;;2063148;28;20271;-49
2022/03/15 02:53:46;;;;;;;4.77;4.27;;;;;21.30;101614.00;;;;2075331;28;20220;-49
2022/03/15 02:54:47;;;;;;;4.85;4.45;;;;;21.30;101613.00;;;;2079303;28;20213;-48
2022/03/15 02:55:47;;;;;;;5.73;4.60;;;;;21.30;101608.00;;;;2078206;28;20276;-49
2022/03/15 02:56:49;;;;;;;5.70;4.63;;;;;21.30;101615.00;;;;2079939;28;20720;-48
2022/03/15 02:57:49;;;;;;;5.00;4.25;;;;;21.30;101601.00;;;;2079759;28;20651;-48
2022/03/15 02:58:50;;;;;;;5.10;4.60;;;;;21.30;101598.00;;;;2079841;28;20232;-48
2022/03/15 02:59:51;;;;;;;5.60;4.37;;;;;21.30;101599.00;;;;2079439;28;20222;-48
2022/03/15 03:00:52;;;;;;;6.80;4.15;;;;;21.30;101558.00;;;;2079801;28;20236;-48
2022/03/15 03:01:52;;;;;;;4.87;4.40;;;;;21.30;101603.00;;;;2077037;28;20673;-48
2022/03/15 03:02:53;;;;;;;4.40;4.00;;;;;21.30;101596.00;;;;2079830;28;20208;-49
2022/03/15 03:03:53;;;;;;;4.43;4.00;;;;;21.30;101602.00;;;;2079699;28;20225;-49
2022/03/15 03:04:54;;;;;;;4.97;4.17;;;;;21.30;101602.00;;;;2078489;28;20448;-48
2022/03/15 03:05:54;;;;;;;4.63;4.13;;;;;21.30;101602.00;;;;2079037;28;20210;-48
2022/03/15 03:06:54;;;;;;;6.40;4.90;;;;;21.30;101593.00;;;;2073989;28;20293;-48
2022/03/15 03:07:55;;;;;;;4.50;4.10;;;;;21.30;101590.00;;;;2079020;28;20217;-48
2022/03/15 03:08:55;;;;;;;4.57;4.17;;;;;21.30;101589.00;;;;2076571;28;20214;-48
2022/03/15 03:09:55;;;;;;;5.70;4.53;;;;;21.30;101588.00;;;;2071562;28;20268;-48
2022/03/15 03:10:56;;;;;;;4.80;4.00;;;;;21.30;101592.00;;;;2071485;28;20218;-48
2022/03/15 03:11:57;;;;;;;4.60;4.20;;;;;21.30;101582.00;;;;2071597;28;20268;-48
2022/03/15 03:12:58;;;;;;;4.85;4.35;;;;;21.30;101587.00;;;;2071559;28;20222;-48
2022/03/15 03:14:00;;;;;;;4.50;3.90;;;;;21.30;101582.00;;;;2071277;28;20218;-48
2022/03/15 03:15:01;;;;;;;4.50;4.10;;;;;21.30;101584.00;;;;2071364;28;20727;-48
2022/03/15 03:16:03;;;;;;;4.78;3.70;;;;;21.30;101589.00;;;;2070758;28;20222;-48
2022/03/15 03:17:03;;;;;;;4.82;3.85;;;;;21.30;101579.00;;;;2066901;28;20217;-48
2022/03/15 03:18:04;;;;;;;4.50;4.10;;;;;21.20;101586.00;;;;2070432;28;20743;-48
2022/03/15 03:19:07;;;;;;;4.70;4.27;;;;;21.20;101576.00;;;;2070760;28;20301;-48
2022/03/15 03:20:12;;;;;;;4.88;4.35;;;;;21.20;101582.00;;;;2070901;28;20222;-48
2022/03/15 03:21:12;;;;;;;4.93;4.45;;;;;21.20;101583.00;;;;2070896;28;20210;-48
2022/03/15 03:22:13;;;;;;;4.33;3.93;;;;;21.20;101582.00;;;;2076278;28;20558;-48
2022/03/15 03:23:14;;;;;;;3.83;3.50;;;;;21.30;101574.00;;;;2079346;28;20209;-48
2022/03/15 03:24:19;;;;;;;4.45;4.05;;;;;21.30;101579.00;;;;2078768;28;20213;-48
2022/03/15 03:25:20;;;;;;;4.53;4.10;;;;;21.20;101580.00;;;;2078422;28;20554;-49
2022/03/15 03:26:21;;;;;;;4.67;3.93;;;;;21.20;101571.00;;;;2073645;28;20228;-48
2022/03/15 03:27:22;;;;;;;4.47;3.67;;;;;21.20;101579.00;;;;2085946;28;20232;-49
2022/03/15 03:28:23;;;;;;;4.10;3.70;;;;;21.20;101576.00;;;;2085938;28;20212;-49
2022/03/15 03:29:25;;;;;;;5.10;4.57;;;;;21.20;101577.00;;;;2078869;28;20213;-48
2022/03/15 03:30:27;;;;;;;4.70;4.20;;;;;21.20;101572.00;;;;2079325;28;20209;-48
2022/03/15 03:31:29;;;;;;;5.28;4.40;;;;;21.20;101579.00;;;;2079509;28;20205;-48
2022/03/15 03:32:29;;;;;;;4.80;4.40;;;;;21.20;101583.00;;;;2079399;28;20258;-48
2022/03/15 03:33:30;;;;;;;6.20;4.17;;;;;21.20;101569.00;;;;2079687;28;21083;-48
2022/03/15 03:34:30;;;;;;;4.57;4.17;;;;;21.20;101575.00;;;;2076660;28;20298;-48
2022/03/15 03:35:30;;;;;;;4.93;4.00;;;;;21.20;101575.00;;;;2076117;28;20213;-49
2022/03/15 03:36:36;;;;;;;5.60;3.87;;;;;21.20;101576.00;;;;2075670;28;20209;-48
2022/03/15 03:37:36;;;;;;;4.35;3.95;;;;;21.20;101576.00;;;;2070081;28;20220;-49
2022/03/15 03:38:37;;;;;;;4.77;4.10;;;;;21.20;101576.00;;;;2069566;28;20989;-48
2022/03/15 03:39:37;;;;;;;4.80;4.23;;;;;21.20;101573.00;;;;2070996;28;20264;-48
2022/03/15 03:40:38;;;;;;;4.17;3.87;;;;;21.20;101561.00;;;;2071073;28;20701;-48
2022/03/15 03:41:38;;;;;;;4.17;3.77;;;;;21.20;101565.00;;;;2068804;28;20226;-49
2022/03/15 03:42:38;;;;;;;4.87;4.07;;;;;21.10;101569.00;;;;2071453;28;20214;-48
2022/03/15 03:43:39;;;;;;;4.40;4.00;;;;;21.20;101567.00;;;;2071031;28;20218;-48
2022/03/15 03:44:41;;;;;;;6.60;4.67;;;;;21.20;101568.00;;;;2071230;28;20941;-48
2022/03/15 03:45:41;;;;;;;4.60;4.20;;;;;21.20;101569.00;;;;2070585;28;20258;-48
2022/03/15 03:46:42;;;;;;;5.40;4.20;;;;;21.20;101574.00;;;;2069990;28;20214;-48
2022/03/15 03:47:42;;;;;;;3.73;3.40;;;;;21.20;101572.00;;;;2070396;28;20229;-48
2022/03/15 03:48:43;;;;;;;5.00;4.00;;;;;21.20;101571.00;;;;2070076;28;20257;-48
2022/03/15 03:49:43;;;;;;;4.40;4.00;;;;;21.20;101562.00;;;;2071340;28;20222;-48
2022/03/15 03:50:43;;;;;;;4.13;3.73;;;;;21.20;101570.00;;;;2071312;28;20210;-48
2022/03/15 03:51:44;;;;;;;4.40;4.00;;;;;21.20;101572.00;;;;2070873;28;20214;-48
2022/03/15 03:52:44;;;;;;;5.00;4.23;;;;;21.20;101564.00;;;;2075361;28;20225;-48
2022/03/15 03:53:45;;;;;;;4.83;3.90;;;;;21.10;101568.00;;;;2078261;28;20219;-48
2022/03/15 03:54:45;;;;;;;5.93;3.83;;;;;21.20;101566.00;;;;2077843;28;20252;-48
2022/03/15 03:55:45;;;;;;;4.17;3.80;;;;;21.20;101563.00;;;;2077439;28;20210;-48
2022/03/15 03:56:46;;;;;;;5.50;4.20;;;;;21.10;101560.00;;;;2075559;28;20240;-48
2022/03/15 03:57:46;;;;;;;5.37;4.57;;;;;21.10;101565.00;;;;2078335;28;20213;-48
2022/03/15 03:58:46;;;;;;;4.20;3.67;;;;;21.10;101558.00;;;;2079069;28;20213;-48
2022/03/15 03:59:47;;;;;;;4.70;4.30;;;;;21.20;101561.00;;;;2078766;28;20600;-48
2022/03/15 04:00:47;;;;;;;6.70;4.50;;;;;21.10;101560.00;;;;2079140;28;20622;-48
2022/03/15 04:01:47;;;;;;;4.73;4.30;;;;;21.10;101564.00;;;;2076898;28;20627;-48
2022/03/15 04:02:48;;;;;;;4.50;4.10;;;;;21.10;101564.00;;;;2078615;28;20213;-48
2022/03/15 04:03:48;;;;;;;7.60;4.60;;;;;21.10;101566.00;;;;2078417;28;20217;-48
2022/03/15 04:04:52;;;;;;;5.00;4.50;;;;;21.10;101571.00;;;;2078790;28;20217;-48
2022/03/15 04:05:52;;;;;;;6.57;4.07;;;;;21.10;101575.00;;;;2078278;28;20214;-48
2022/03/15 04:06:54;;;;;;;4.03;3.70;;;;;21.10;101517.00;;;;2076636;28;20209;-48
2022/03/15 04:07:55;;;;;;;4.90;4.00;;;;;21.10;101570.00;;;;2070172;28;20214;-48
2022/03/15 04:08:56;;;;;;;4.70;4.03;;;;;21.10;101573.00;;;;2073679;28;20224;-48
2022/03/15 04:09:56;;;;;;;5.43;3.92;;;;;21.10;101570.00;;;;2069669;28;20725;-48
2022/03/15 04:10:57;;;;;;;3.97;3.60;;;;;21.10;101573.00;;;;2071158;28;20218;-48
2022/03/15 04:11:57;;;;;;;5.43;4.10;;;;;21.10;101567.00;;;;2072930;28;20229;-49
2022/03/15 04:12:58;;;;;;;4.03;3.67;;;;;21.10;101563.00;;;;2074302;28;20222;-48
2022/03/15 04:14:03;;;;;;;4.60;3.43;;;;;21.10;101571.00;;;;2078127;28;20221;-48
2022/03/15 04:15:04;;;;;;;4.25;3.85;;;;;21.10;101568.00;;;;2077441;28;20221;-49
2022/03/15 04:16:06;;;;;;;4.70;3.60;;;;;21.10;101565.00;;;;2077797;28;20205;-49
2022/03/15 04:17:09;;;;;;;5.20;3.53;;;;;21.00;101573.00;;;;2078231;28;20478;-48
2022/03/15 04:18:10;;;;;;;4.22;3.83;;;;;21.10;101570.00;;;;2076798;28;20231;-48
2022/03/15 04:19:11;;;;;;;4.70;4.17;;;;;21.10;101573.00;;;;2079152;28;20212;-48
2022/03/15 04:20:12;;;;;;;4.78;4.20;;;;;21.10;101568.00;;;;2078936;28;20220;-48
2022/03/15 04:21:12;;;;;;;4.30;3.90;;;;;21.10;101570.00;;;;2078611;28;20206;-48
2022/03/15 04:22:12;;;;;;;4.30;3.90;;;;;21.10;101576.00;;;;2073527;28;20234;-48
2022/03/15 04:23:14;;;;;;;4.80;3.90;;;;;21.10;101573.00;;;;2074447;28;20221;-48
2022/03/15 04:24:17;;;;;;;4.78;4.32;;;;;21.10;101575.00;;;;2072490;28;20214;-48
2022/03/15 04:25:19;;;;;;;4.97;4.35;;;;;21.10;101596.00;;;;2070356;28;20581;-48
2022/03/15 04:26:23;;;;;;;4.75;4.30;;;;;21.00;101580.00;;;;2070006;28;20217;-48
2022/03/15 04:27:23;;;;;;;5.78;4.07;;;;;21.00;101575.00;;;;2069851;28;20297;-48
2022/03/15 04:28:24;;;;;;;4.37;3.80;;;;;21.10;101580.00;;;;2070146;28;20222;-48
2022/03/15 04:29:24;;;;;;;3.80;3.50;;;;;21.10;101581.00;;;;2070840;28;20218;-48
2022/03/15 04:30:24;;;;;;;3.90;3.50;;;;;21.00;101577.00;;;;2070555;28;20267;-48
2022/03/15 04:31:24;;;;;;;4.70;4.30;;;;;21.00;101571.00;;;;2070907;28;20214;-48
2022/03/15 04:32:25;;;;;;;4.40;3.90;;;;;21.00;101575.00;;;;2068545;28;20216;-48
2022/03/15 04:33:25;;;;;;;4.13;3.70;;;;;21.00;101584.00;;;;2070742;28;20206;-48
2022/03/15 04:34:26;;;;;;;4.43;3.43;;;;;21.10;101578.00;;;;2073742;28;20635;-48
2022/03/15 04:35:26;;;;;;;3.73;3.43;;;;;21.00;101576.00;;;;2071758;28;20230;-48
2022/03/15 04:36:26;;;;;;;4.17;3.50;;;;;21.00;101581.00;;;;2073758;28;20231;-48
2022/03/15 04:37:27;;;;;;;4.17;3.60;;;;;21.00;101572.00;;;;2072821;28;20210;-48
2022/03/15 04:38:27;;;;;;;6.23;4.30;;;;;21.00;101582.00;;;;2070212;28;20206;-48
2022/03/15 04:39:28;;;;;;;4.50;3.83;;;;;21.00;101567.00;;;;2070812;28;20217;-48
2022/03/15 04:40:28;;;;;;;4.40;3.83;;;;;21.00;101586.00;;;;2070809;28;20210;-48
2022/03/15 04:41:29;;;;;;;4.40;3.80;;;;;21.00;101584.00;;;;2070904;28;20218;-48
2022/03/15 04:42:29;;;;;;;3.90;3.50;;;;;21.00;101586.00;;;;2067489;28;20228;-48
2022/03/15 04:43:29;;;;;;;4.30;3.90;;;;;21.00;101590.00;;;;2070869;28;20217;-48
2022/03/15 04:44:30;;;;;;;3.90;3.47;;;;;21.00;101588.00;;;;2070897;28;20249;-48
2022/03/15 04:45:30;;;;;;;4.40;3.90;;;;;21.00;101578.00;;;;2070212;28;20214;-48
2022/03/15 04:46:30;;;;;;;4.20;3.77;;;;;21.00;101582.00;;;;2071931;28;20213;-48
2022/03/15 04:47:31;;;;;;;4.33;3.73;;;;;21.00;101578.00;;;;2069610;28;20271;-49
2022/03/15 04:48:32;;;;;;;4.30;3.90;;;;;21.00;101577.00;;;;2070529;28;20222;-48
2022/03/15 04:49:32;;;;;;;4.53;3.67;;;;;21.00;101576.00;;;;2073777;28;20229;-47
2022/03/15 04:50:32;;;;;;;4.73;4.07;;;;;21.00;101574.00;;;;2070793;28;20218;-49
2022/03/15 04:51:33;;;;;;;4.80;3.60;;;;;21.00;101566.00;;;;2068377;28;20217;-48
2022/03/15 04:52:34;;;;;;;5.07;4.10;;;;;21.00;101558.00;;;;2074862;28;20217;-48
2022/03/15 04:53:35;;;;;;;3.97;3.58;;;;;21.00;101567.00;;;;2069160;28;20214;-48
2022/03/15 04:54:36;;;;;;;3.65;3.35;;;;;21.00;101555.00;;;;2070274;28;20226;-54
2022/03/15 04:55:36;;;;;;;4.17;3.77;;;;;21.00;101553.00;;;;2070027;28;20229;-48
2022/03/15 04:56:38;;;;;;;4.10;3.70;;;;;21.00;101552.00;;;;2070517;28;20272;-48
2022/03/15 04:57:38;;;;;;;4.15;3.80;;;;;21.00;101556.00;;;;2070238;28;20217;-49
2022/03/15 04:58:38;;;;;;;5.17;3.90;;;;;21.00;101551.00;;;;2069780;28;20237;-48
2022/03/15 04:59:39;;;;;;;4.43;3.77;;;;;21.00;101551.00;;;;2069925;28;20222;-48